sensor_id;sensor_type;location;lat;lon;timestamp;pressure;altitude;pressure_sealevel;temperature;humidity
82743;BME280;72483;50.656;7.216;2023-09-08T00:01:59;101178.78;;;26.45;44.05
82743;BME280;72483;50.656;7.216;2023-09-08T00:04:25;101179.63;;;26.45;44.24
82743;BME280;72483;50.656;7.216;2023-09-08T00:06:52;101181.59;;;26.45;44.17
82743;BME280;72483;50.656;7.216;2023-09-08T00:09:19;101181.97;;;26.43;44.25
82743;BME280;72483;50.656;7.216;2023-09-08T00:11:46;101168.50;;;26.40;44.34
82743;BME280;72483;50.656;7.216;2023-09-08T00:14:12;101179.81;;;26.40;44.50
82743;BME280;72483;50.656;7.216;2023-09-08T00:16:39;101178.97;;;26.40;44.20
82743;BME280;72483;50.656;7.216;2023-09-08T00:19:08;101178.13;;;26.39;44.18
82743;BME280;72483;50.656;7.216;2023-09-08T00:21:34;101183.31;;;26.37;44.16
82743;BME280;72483;50.656;7.216;2023-09-08T00:24:01;101182.78;;;26.35;44.28
82743;BME280;72483;50.656;7.216;2023-09-08T00:26:30;101179.63;;;26.37;44.10
82743;BME280;72483;50.656;7.216;2023-09-08T00:28:57;101179.97;;;26.35;44.15
82743;BME280;72483;50.656;7.216;2023-09-08T00:31:23;101181.13;;;26.34;44.19
82743;BME280;72483;50.656;7.216;2023-09-08T00:33:50;101171.00;;;26.33;44.22
82743;BME280;72483;50.656;7.216;2023-09-08T00:36:16;101174.66;;;26.34;44.20
82743;BME280;72483;50.656;7.216;2023-09-08T00:38:44;101173.00;;;26.33;44.36
82743;BME280;72483;50.656;7.216;2023-09-08T00:41:10;101171.31;;;26.32;44.40
82743;BME280;72483;50.656;7.216;2023-09-08T00:43:38;101171.31;;;26.32;44.30
82743;BME280;72483;50.656;7.216;2023-09-08T00:46:05;101161.69;;;26.24;44.21
82743;BME280;72483;50.656;7.216;2023-09-08T00:48:32;101166.34;;;26.29;44.07
82743;BME280;72483;50.656;7.216;2023-09-08T00:51:00;101165.53;;;26.28;44.31
82743;BME280;72483;50.656;7.216;2023-09-08T00:53:26;101166.69;;;26.27;44.23
82743;BME280;72483;50.656;7.216;2023-09-08T00:55:54;101158.22;;;26.27;44.40
82743;BME280;72483;50.656;7.216;2023-09-08T00:58:21;101163.03;;;26.27;44.25
82743;BME280;72483;50.656;7.216;2023-09-08T01:00:49;101167.84;;;26.26;44.29
82743;BME280;72483;50.656;7.216;2023-09-08T01:03:15;101164.53;;;26.24;44.25
82743;BME280;72483;50.656;7.216;2023-09-08T01:05:42;101169.03;;;26.25;44.34
82743;BME280;72483;50.656;7.216;2023-09-08T01:08:12;101174.16;;;26.23;44.20
82743;BME280;72483;50.656;7.216;2023-09-08T01:10:40;101175.81;;;26.24;44.32
82743;BME280;72483;50.656;7.216;2023-09-08T01:13:07;101178.97;;;26.23;44.24
82743;BME280;72483;50.656;7.216;2023-09-08T01:15:36;101172.00;;;26.20;44.31
82743;BME280;72483;50.656;7.216;2023-09-08T01:18:04;101172.81;;;26.21;44.36
82743;BME280;72483;50.656;7.216;2023-09-08T01:20:53;101182.44;;;26.20;44.35
82743;BME280;72483;50.656;7.216;2023-09-08T01:23:36;101174.31;;;26.18;44.19
82743;BME280;72483;50.656;7.216;2023-09-08T01:26:08;101179.13;;;26.18;44.51
82743;BME280;72483;50.656;7.216;2023-09-08T01:28:37;101171.00;;;26.16;44.05
82743;BME280;72483;50.656;7.216;2023-09-08T01:31:05;101177.47;;;26.17;44.47
82743;BME280;72483;50.656;7.216;2023-09-08T01:33:32;101180.59;;;26.15;44.36
82743;BME280;72483;50.656;7.216;2023-09-08T01:35:59;101174.44;;;26.13;44.41
82743;BME280;72483;50.656;7.216;2023-09-08T01:38:26;101174.13;;;26.15;44.52
82743;BME280;72483;50.656;7.216;2023-09-08T01:40:52;101180.09;;;26.13;44.46
82743;BME280;72483;50.656;7.216;2023-09-08T01:43:20;101181.75;;;26.14;44.34
82743;BME280;72483;50.656;7.216;2023-09-08T01:45:47;101182.09;;;26.13;45.02
82743;BME280;72483;50.656;7.216;2023-09-08T01:48:13;101178.44;;;26.12;44.41
82743;BME280;72483;50.656;7.216;2023-09-08T01:50:40;101172.81;;;26.12;44.58
82743;BME280;72483;50.656;7.216;2023-09-08T01:53:06;101175.09;;;26.10;44.43
82743;BME280;72483;50.656;7.216;2023-09-08T01:55:33;101169.81;;;26.09;44.31
82743;BME280;72483;50.656;7.216;2023-09-08T01:57:59;101168.97;;;26.08;44.44
82743;BME280;72483;50.656;7.216;2023-09-08T02:00:27;101167.31;;;26.07;44.58
82743;BME280;72483;50.656;7.216;2023-09-08T02:02:53;101157.19;;;26.06;44.58
82743;BME280;72483;50.656;7.216;2023-09-08T02:05:20;101157.19;;;26.06;44.58
82743;BME280;72483;50.656;7.216;2023-09-08T02:07:47;101147.88;;;26.06;44.51
82743;BME280;72483;50.656;7.216;2023-09-08T02:10:14;101150.72;;;26.06;44.28
82743;BME280;72483;50.656;7.216;2023-09-08T02:12:41;101149.88;;;26.05;44.59
82743;BME280;72483;50.656;7.216;2023-09-08T02:15:08;101144.53;;;26.04;44.49
82743;BME280;72483;50.656;7.216;2023-09-08T02:17:37;101149.03;;;26.05;44.67
82743;BME280;72483;50.656;7.216;2023-09-08T02:20:05;101145.72;;;26.03;44.65
82743;BME280;72483;50.656;7.216;2023-09-08T02:22:31;101145.22;;;26.00;44.52
82743;BME280;72483;50.656;7.216;2023-09-08T02:24:58;101145.22;;;26.00;44.60
82743;BME280;72483;50.656;7.216;2023-09-08T02:27:24;101137.09;;;25.99;44.55
82743;BME280;72483;50.656;7.216;2023-09-08T02:29:51;101147.22;;;26.00;44.67
82743;BME280;72483;50.656;7.216;2023-09-08T02:32:17;101151.19;;;25.99;44.73
82743;BME280;72483;50.656;7.216;2023-09-08T02:34:45;101145.56;;;25.99;44.68
82743;BME280;72483;50.656;7.216;2023-09-08T02:37:13;101147.53;;;25.98;44.55
82743;BME280;72483;50.656;7.216;2023-09-08T02:39:40;101145.88;;;25.97;44.70
82743;BME280;72483;50.656;7.216;2023-09-08T02:42:06;101149.88;;;25.96;44.75
82743;BME280;72483;50.656;7.216;2023-09-08T02:44:33;101151.88;;;25.96;44.65
82743;BME280;72483;50.656;7.216;2023-09-08T02:46:59;101151.03;;;25.95;44.67
82743;BME280;72483;50.656;7.216;2023-09-08T02:49:26;101148.53;;;25.94;44.68
82743;BME280;72483;50.656;7.216;2023-09-08T02:51:54;101150.53;;;25.93;44.65
82743;BME280;72483;50.656;7.216;2023-09-08T02:54:20;101150.53;;;25.93;44.69
82743;BME280;72483;50.656;7.216;2023-09-08T02:56:47;101154.50;;;25.92;44.65
82743;BME280;72483;50.656;7.216;2023-09-08T02:59:13;101148.03;;;25.92;44.93
82743;BME280;72483;50.656;7.216;2023-09-08T03:01:40;101141.91;;;25.90;44.62
82743;BME280;72483;50.656;7.216;2023-09-08T03:04:06;101141.91;;;25.90;44.68
82743;BME280;72483;50.656;7.216;2023-09-08T03:06:34;101143.88;;;25.89;44.71
82743;BME280;72483;50.656;7.216;2023-09-08T03:09:02;101151.53;;;25.89;44.79
82743;BME280;72483;50.656;7.216;2023-09-08T03:11:28;101143.41;;;25.87;44.79
82743;BME280;72483;50.656;7.216;2023-09-08T03:13:55;101153.03;;;25.86;44.90
82743;BME280;72483;50.656;7.216;2023-09-08T03:16:22;101151.03;;;25.87;44.84
82743;BME280;72483;50.656;7.216;2023-09-08T03:18:48;101150.50;;;25.85;44.88
82743;BME280;72483;50.656;7.216;2023-09-08T03:21:15;101144.06;;;25.84;44.82
82743;BME280;72483;50.656;7.216;2023-09-08T03:23:42;101151.69;;;25.84;44.88
82743;BME280;72483;50.656;7.216;2023-09-08T03:26:11;101145.22;;;25.83;44.88
82743;BME280;72483;50.656;7.216;2023-09-08T03:28:37;101141.56;;;25.83;44.85
82743;BME280;72483;50.656;7.216;2023-09-08T03:31:04;101145.53;;;25.82;44.88
82743;BME280;72483;50.656;7.216;2023-09-08T03:33:31;101143.88;;;25.81;44.83
82743;BME280;72483;50.656;7.216;2023-09-08T03:35:58;101141.06;;;25.81;44.87
82743;BME280;72483;50.656;7.216;2023-09-08T03:38:24;101141.38;;;25.79;44.78
82743;BME280;72483;50.656;7.216;2023-09-08T03:40:50;101142.53;;;25.78;44.83
82743;BME280;72483;50.656;7.216;2023-09-08T03:43:18;101139.72;;;25.78;44.96
82743;BME280;72483;50.656;7.216;2023-09-08T03:45:45;101138.91;;;25.78;44.83
82743;BME280;72483;50.656;7.216;2023-09-08T03:48:12;101138.06;;;25.77;44.83
82743;BME280;72483;50.656;7.216;2023-09-08T03:50:39;101135.56;;;25.76;44.87
82743;BME280;72483;50.656;7.216;2023-09-08T03:53:05;101134.72;;;25.75;44.96
82743;BME280;72483;50.656;7.216;2023-09-08T03:55:32;101139.56;;;25.75;44.98
82743;BME280;72483;50.656;7.216;2023-09-08T03:57:58;101141.56;;;25.74;44.96
82743;BME280;72483;50.656;7.216;2023-09-08T04:00:26;101137.91;;;25.74;44.96
82743;BME280;72483;50.656;7.216;2023-09-08T04:02:53;101144.69;;;25.73;44.72
82743;BME280;72483;50.656;7.216;2023-09-08T04:05:19;101136.22;;;25.73;44.82
82743;BME280;72483;50.656;7.216;2023-09-08T04:07:46;101141.88;;;25.73;44.86
82743;BME280;72483;50.656;7.216;2023-09-08T04:10:12;101147.50;;;25.73;44.96
82743;BME280;72483;50.656;7.216;2023-09-08T04:12:40;101149.50;;;25.72;44.93
82743;BME280;72483;50.656;7.216;2023-09-08T04:15:07;101152.66;;;25.71;44.90
82743;BME280;72483;50.656;7.216;2023-09-08T04:17:35;101146.19;;;25.70;45.00
82743;BME280;72483;50.656;7.216;2023-09-08T04:20:02;101142.88;;;25.68;44.97
82743;BME280;72483;50.656;7.216;2023-09-08T04:22:30;101146.50;;;25.69;44.80
82743;BME280;72483;50.656;7.216;2023-09-08T04:24:57;101150.50;;;25.68;44.90
82743;BME280;72483;50.656;7.216;2023-09-08T04:27:23;101144.84;;;25.68;44.87
82743;BME280;72483;50.656;7.216;2023-09-08T04:29:50;101144.03;;;25.67;44.93
82743;BME280;72483;50.656;7.216;2023-09-08T04:32:16;101143.19;;;25.67;44.96
82743;BME280;72483;50.656;7.216;2023-09-08T04:34:44;101145.53;;;25.65;45.03
82743;BME280;72483;50.656;7.216;2023-09-08T04:37:11;101149.50;;;25.64;45.21
82743;BME280;72483;50.656;7.216;2023-09-08T04:39:37;101149.50;;;25.64;45.06
82743;BME280;72483;50.656;7.216;2023-09-08T04:42:04;101153.47;;;25.63;44.99
82743;BME280;72483;50.656;7.216;2023-09-08T04:44:31;101150.63;;;25.63;45.09
82743;BME280;72483;50.656;7.216;2023-09-08T04:46:57;101146.19;;;25.62;44.99
82743;BME280;72483;50.656;7.216;2023-09-08T04:49:24;101148.16;;;25.61;45.12
82743;BME280;72483;50.656;7.216;2023-09-08T04:51:53;101148.47;;;25.60;45.12
82743;BME280;72483;50.656;7.216;2023-09-08T04:54:19;101149.31;;;25.60;45.17
82743;BME280;72483;50.656;7.216;2023-09-08T04:56:47;101147.66;;;25.59;45.40
82743;BME280;72483;50.656;7.216;2023-09-08T04:59:14;101144.84;;;25.59;44.76
82743;BME280;72483;50.656;7.216;2023-09-08T05:01:40;101152.78;;;25.57;45.17
82743;BME280;72483;50.656;7.216;2023-09-08T05:04:08;101153.44;;;25.54;45.12
82743;BME280;72483;50.656;7.216;2023-09-08T05:06:35;101155.63;;;25.57;45.18
82743;BME280;72483;50.656;7.216;2023-09-08T05:09:03;101156.75;;;25.56;45.04
82743;BME280;72483;50.656;7.216;2023-09-08T05:11:29;101154.78;;;25.57;45.05
82743;BME280;72483;50.656;7.216;2023-09-08T05:13:56;101162.75;;;25.55;45.15
82743;BME280;72483;50.656;7.216;2023-09-08T05:16:23;101156.28;;;25.54;45.12
82743;BME280;72483;50.656;7.216;2023-09-08T05:19:01;101155.44;;;25.54;45.12
82743;BME280;72483;50.656;7.216;2023-09-08T05:21:28;101153.78;;;25.53;45.21
82743;BME280;72483;50.656;7.216;2023-09-08T05:23:54;101150.44;;;25.51;45.23
82743;BME280;72483;50.656;7.216;2023-09-08T05:26:22;101154.09;;;25.51;45.26
82743;BME280;72483;50.656;7.216;2023-09-08T05:28:49;101154.44;;;25.50;45.21
82743;BME280;72483;50.656;7.216;2023-09-08T05:31:15;101156.44;;;25.49;45.11
82743;BME280;72483;50.656;7.216;2023-09-08T05:33:41;101153.63;;;25.49;45.30
82743;BME280;72483;50.656;7.216;2023-09-08T05:36:08;101158.38;;;25.48;45.09
82743;BME280;72483;50.656;7.216;2023-09-08T05:38:34;101155.56;;;25.48;45.12
82743;BME280;72483;50.656;7.216;2023-09-08T05:41:01;101158.38;;;25.48;45.08
82743;BME280;72483;50.656;7.216;2023-09-08T05:43:29;101159.53;;;25.47;45.07
82743;BME280;72483;50.656;7.216;2023-09-08T05:45:55;101152.75;;;25.48;44.89
82743;BME280;72483;50.656;7.216;2023-09-08T05:48:22;101166.38;;;25.46;45.36
82743;BME280;72483;50.656;7.216;2023-09-08T05:50:48;101162.72;;;25.46;45.17
82743;BME280;72483;50.656;7.216;2023-09-08T05:53:15;101156.22;;;25.45;45.15
82743;BME280;72483;50.656;7.216;2023-09-08T05:55:41;101156.53;;;25.44;45.14
82743;BME280;72483;50.656;7.216;2023-09-08T05:58:08;101171.47;;;25.44;45.12
82743;BME280;72483;50.656;7.216;2023-09-08T06:00:37;101165.84;;;25.44;45.05
82743;BME280;72483;50.656;7.216;2023-09-08T06:03:04;101174.31;;;25.44;45.06
82743;BME280;72483;50.656;7.216;2023-09-08T06:05:31;101173.47;;;25.44;45.16
82743;BME280;72483;50.656;7.216;2023-09-08T06:07:57;101175.78;;;25.42;45.13
82743;BME280;72483;50.656;7.216;2023-09-08T06:10:24;101178.59;;;25.42;45.15
82743;BME280;72483;50.656;7.216;2023-09-08T06:12:50;101180.59;;;25.41;45.10
82743;BME280;72483;50.656;7.216;2023-09-08T06:15:17;101174.94;;;25.41;45.10
82743;BME280;72483;50.656;7.216;2023-09-08T06:17:44;101170.47;;;25.40;44.97
82743;BME280;72483;50.656;7.216;2023-09-08T06:20:12;101165.34;;;25.42;45.00
82743;BME280;72483;50.656;7.216;2023-09-08T06:22:38;101175.78;;;25.42;45.12
82743;BME280;72483;50.656;7.216;2023-09-08T06:25:05;101173.28;;;25.40;45.26
82743;BME280;72483;50.656;7.216;2023-09-08T06:27:32;101171.28;;;25.41;45.25
82743;BME280;72483;50.656;7.216;2023-09-08T06:29:59;101181.75;;;25.40;45.09
82743;BME280;72483;50.656;7.216;2023-09-08T06:32:25;101176.09;;;25.40;45.18
82743;BME280;72483;50.656;7.216;2023-09-08T06:34:53;101176.44;;;25.39;45.08
82743;BME280;72483;50.656;7.216;2023-09-08T06:37:20;101180.41;;;25.38;45.15
82743;BME280;72483;50.656;7.216;2023-09-08T06:39:46;101184.91;;;25.39;45.02
82743;BME280;72483;50.656;7.216;2023-09-08T06:42:13;101177.59;;;25.38;45.20
82743;BME280;72483;50.656;7.216;2023-09-08T06:44:39;101186.06;;;25.38;45.16
82743;BME280;72483;50.656;7.216;2023-09-08T06:47:06;101186.41;;;25.36;45.18
82743;BME280;72483;50.656;7.216;2023-09-08T06:49:33;101183.56;;;25.36;45.23
82743;BME280;72483;50.656;7.216;2023-09-08T06:52:00;101177.09;;;25.36;45.32
82743;BME280;72483;50.656;7.216;2023-09-08T06:54:27;101180.75;;;25.36;45.22
82743;BME280;72483;50.656;7.216;2023-09-08T06:56:53;101183.56;;;25.36;45.16
82743;BME280;72483;50.656;7.216;2023-09-08T06:59:20;101181.59;;;25.37;45.36
82743;BME280;72483;50.656;7.216;2023-09-08T07:01:46;101179.91;;;25.36;45.21
82743;BME280;72483;50.656;7.216;2023-09-08T07:04:13;101168.81;;;25.39;45.10
82743;BME280;72483;50.656;7.216;2023-09-08T07:06:39;101179.25;;;25.39;45.86
82743;BME280;72483;50.656;7.216;2023-09-08T07:09:08;101170.41;;;25.23;45.62
82743;BME280;72483;50.656;7.216;2023-09-08T07:11:34;101170.84;;;25.08;45.89
82743;BME280;72483;50.656;7.216;2023-09-08T07:14:01;101169.66;;;25.01;46.21
82743;BME280;72483;50.656;7.216;2023-09-08T07:16:28;101171.91;;;24.90;46.43
82743;BME280;72483;50.656;7.216;2023-09-08T07:18:54;101169.56;;;24.83;46.70
82743;BME280;72483;50.656;7.216;2023-09-08T07:21:21;101166.00;;;24.78;46.74
82743;BME280;72483;50.656;7.216;2023-09-08T07:23:47;101168.81;;;24.78;46.76
82743;BME280;72483;50.656;7.216;2023-09-08T07:26:15;101166.53;;;24.80;46.90
82743;BME280;72483;50.656;7.216;2023-09-08T07:28:42;101162.53;;;24.81;46.78
82743;BME280;72483;50.656;7.216;2023-09-08T07:31:08;101169.03;;;24.81;46.82
82743;BME280;72483;50.656;7.216;2023-09-08T07:33:35;101158.72;;;24.77;46.74
82743;BME280;72483;50.656;7.216;2023-09-08T07:36:06;101160.72;;;24.76;46.83
82743;BME280;72483;50.656;7.216;2023-09-08T07:38:33;101152.44;;;24.80;46.87
82743;BME280;72483;50.656;7.216;2023-09-08T07:41:01;101159.44;;;24.82;46.90
82743;BME280;72483;50.656;7.216;2023-09-08T07:43:29;101164.63;;;24.89;46.78
82743;BME280;72483;50.656;7.216;2023-09-08T07:45:55;101160.16;;;24.97;46.50
82743;BME280;72483;50.656;7.216;2023-09-08T07:48:22;101158.84;;;24.94;46.76
82743;BME280;72483;50.656;7.216;2023-09-08T07:50:48;101164.34;;;24.99;46.62
82743;BME280;72483;50.656;7.216;2023-09-08T07:53:15;101152.09;;;25.04;46.48
82743;BME280;72483;50.656;7.216;2023-09-08T07:55:42;101158.75;;;25.08;46.36
82743;BME280;72483;50.656;7.216;2023-09-08T07:58:08;101158.41;;;25.09;46.23
82743;BME280;72483;50.656;7.216;2023-09-08T08:00:36;101158.28;;;25.14;46.54
82743;BME280;72483;50.656;7.216;2023-09-08T08:03:03;101153.56;;;25.01;46.45
82743;BME280;72483;50.656;7.216;2023-09-08T08:05:31;101148.59;;;24.98;46.62
82743;BME280;72483;50.656;7.216;2023-09-08T08:07:57;101150.59;;;25.06;46.42
82743;BME280;72483;50.656;7.216;2023-09-08T08:10:24;101160.91;;;25.11;46.32
82743;BME280;72483;50.656;7.216;2023-09-08T08:12:50;101159.25;;;25.18;46.10
82743;BME280;72483;50.656;7.216;2023-09-08T08:15:19;101157.09;;;25.15;46.04
82743;BME280;72483;50.656;7.216;2023-09-08T08:17:47;101156.78;;;25.17;45.93
82743;BME280;72483;50.656;7.216;2023-09-08T08:20:13;101157.81;;;25.21;45.68
82743;BME280;72483;50.656;7.216;2023-09-08T08:22:43;101158.63;;;25.21;46.03
82743;BME280;72483;50.656;7.216;2023-09-08T08:25:10;101149.00;;;25.22;46.19
82743;BME280;72483;50.656;7.216;2023-09-08T08:27:37;101158.31;;;25.23;46.09
82743;BME280;72483;50.656;7.216;2023-09-08T08:30:05;101154.81;;;25.26;45.97
82743;BME280;72483;50.656;7.216;2023-09-08T08:32:33;101163.47;;;25.29;45.94
82743;BME280;72483;50.656;7.216;2023-09-08T08:35:01;101155.66;;;25.26;46.51
82743;BME280;72483;50.656;7.216;2023-09-08T08:37:28;101167.25;;;25.25;46.76
82743;BME280;72483;50.656;7.216;2023-09-08T08:39:55;101157.00;;;25.29;45.98
82743;BME280;72483;50.656;7.216;2023-09-08T08:42:21;101156.53;;;25.35;46.00
82743;BME280;72483;50.656;7.216;2023-09-08T08:44:48;101157.00;;;25.37;46.00
82743;BME280;72483;50.656;7.216;2023-09-08T08:47:15;101152.88;;;25.35;45.76
82743;BME280;72483;50.656;7.216;2023-09-08T08:49:43;101148.72;;;25.32;45.88
82743;BME280;72483;50.656;7.216;2023-09-08T08:52:13;101145.72;;;25.37;45.73
82743;BME280;72483;50.656;7.216;2023-09-08T08:54:41;101140.78;;;25.43;45.65
82743;BME280;72483;50.656;7.216;2023-09-08T08:57:08;101142.50;;;25.53;45.41
82743;BME280;72483;50.656;7.216;2023-09-08T08:59:35;101127.75;;;25.56;45.72
82743;BME280;72483;50.656;7.216;2023-09-08T09:02:02;101127.03;;;25.50;45.38
82743;BME280;72483;50.656;7.216;2023-09-08T09:04:29;101123.91;;;25.52;45.80
82743;BME280;72483;50.656;7.216;2023-09-08T09:06:57;101129.91;;;25.59;45.47
82743;BME280;72483;50.656;7.216;2023-09-08T09:09:25;101131.91;;;25.58;45.62
82743;BME280;72483;50.656;7.216;2023-09-08T09:11:51;101132.56;;;25.64;45.42
82743;BME280;72483;50.656;7.216;2023-09-08T09:14:36;101133.88;;;25.66;45.38
82743;BME280;72483;50.656;7.216;2023-09-08T09:17:03;101131.06;;;25.66;45.49
82743;BME280;72483;50.656;7.216;2023-09-08T09:19:30;101133.88;;;25.66;45.13
82743;BME280;72483;50.656;7.216;2023-09-08T09:21:59;101127.75;;;25.64;45.06
82743;BME280;72483;50.656;7.216;2023-09-08T09:24:31;101131.06;;;25.66;44.99
82743;BME280;72483;50.656;7.216;2023-09-08T09:26:59;101131.41;;;25.65;44.57
82743;BME280;72483;50.656;7.216;2023-09-08T09:29:26;101132.38;;;25.69;44.63
82743;BME280;72483;50.656;7.216;2023-09-08T09:31:54;101129.75;;;25.72;44.67
82743;BME280;72483;50.656;7.216;2023-09-08T09:34:22;101123.13;;;25.77;44.70
82743;BME280;72483;50.656;7.216;2023-09-08T09:36:49;101121.97;;;25.78;44.30
82743;BME280;72483;50.656;7.216;2023-09-08T09:39:17;101129.44;;;25.82;44.46
82743;BME280;72483;50.656;7.216;2023-09-08T09:41:45;101130.25;;;25.83;44.28
82743;BME280;72483;50.656;7.216;2023-09-08T09:44:12;101118.31;;;25.86;43.53
82743;BME280;72483;50.656;7.216;2023-09-08T09:46:43;101122.47;;;25.88;43.47
82743;BME280;72483;50.656;7.216;2023-09-08T09:49:10;101115.66;;;25.89;43.67
82743;BME280;72483;50.656;7.216;2023-09-08T09:51:40;101116.97;;;25.92;43.27
82743;BME280;72483;50.656;7.216;2023-09-08T09:54:06;101118.00;;;25.96;43.19
82743;BME280;72483;50.656;7.216;2023-09-08T09:56:34;101123.28;;;25.97;43.18
82743;BME280;72483;50.656;7.216;2023-09-08T09:59:04;101123.13;;;25.94;42.97
82743;BME280;72483;50.656;7.216;2023-09-08T10:01:31;101119.50;;;25.93;43.26
82743;BME280;72483;50.656;7.216;2023-09-08T10:03:58;101115.84;;;25.93;43.37
82743;BME280;72483;50.656;7.216;2023-09-08T10:06:25;101115.16;;;25.96;43.42
82743;BME280;72483;50.656;7.216;2023-09-08T10:08:53;101120.16;;;25.99;43.40
82743;BME280;72483;50.656;7.216;2023-09-08T10:11:21;101118.16;;;25.99;43.65
82743;BME280;72483;50.656;7.216;2023-09-08T10:13:51;101121.47;;;26.02;43.53
82743;BME280;72483;50.656;7.216;2023-09-08T10:16:22;101106.69;;;26.05;43.71
82743;BME280;72483;50.656;7.216;2023-09-08T10:18:52;101103.03;;;26.04;43.70
82743;BME280;72483;50.656;7.216;2023-09-08T10:21:21;101107.16;;;26.07;43.50
82743;BME280;72483;50.656;7.216;2023-09-08T10:23:54;101099.22;;;26.09;43.87
82743;BME280;72483;50.656;7.216;2023-09-08T10:26:24;101093.22;;;26.10;43.68
82743;BME280;72483;50.656;7.216;2023-09-08T10:28:53;101098.19;;;26.13;43.47
82743;BME280;72483;50.656;7.216;2023-09-08T10:31:23;101099.88;;;26.14;43.83
82743;BME280;72483;50.656;7.216;2023-09-08T10:33:51;101097.03;;;26.14;43.71
82743;BME280;72483;50.656;7.216;2023-09-08T10:36:18;101090.75;;;26.17;43.68
82743;BME280;72483;50.656;7.216;2023-09-08T10:38:45;101094.91;;;26.20;43.76
82743;BME280;72483;50.656;7.216;2023-09-08T10:41:27;101094.75;;;26.25;43.79
82743;BME280;72483;50.656;7.216;2023-09-08T10:44:00;101095.06;;;26.23;43.53
82743;BME280;72483;50.656;7.216;2023-09-08T10:46:31;101097.41;;;26.21;43.78
82743;BME280;72483;50.656;7.216;2023-09-08T10:49:03;101094.25;;;26.23;43.55
82743;BME280;72483;50.656;7.216;2023-09-08T10:51:29;101090.75;;;26.26;43.82
82743;BME280;72483;50.656;7.216;2023-09-08T10:53:56;101084.94;;;26.22;43.64
82743;BME280;72483;50.656;7.216;2023-09-08T10:56:27;101091.41;;;26.31;43.37
82743;BME280;72483;50.656;7.216;2023-09-08T10:58:54;101087.94;;;26.34;43.91
82743;BME280;72483;50.656;7.216;2023-09-08T11:01:21;101082.28;;;26.34;43.73
82743;BME280;72483;50.656;7.216;2023-09-08T11:03:53;101078.78;;;26.37;43.53
82743;BME280;72483;50.656;7.216;2023-09-08T11:06:20;101082.56;;;26.41;43.85
82743;BME280;72483;50.656;7.216;2023-09-08T11:08:48;101073.44;;;26.36;42.99
82743;BME280;72483;50.656;7.216;2023-09-08T11:11:18;101078.59;;;26.42;43.44
82743;BME280;72483;50.656;7.216;2023-09-08T11:13:45;101077.44;;;26.43;43.80
82743;BME280;72483;50.656;7.216;2023-09-08T11:16:13;101075.56;;;26.47;43.86
82743;BME280;72483;50.656;7.216;2023-09-08T11:18:39;101074.94;;;26.50;43.63
82743;BME280;72483;50.656;7.216;2023-09-08T11:21:09;101065.63;;;26.50;43.80
82743;BME280;72483;50.656;7.216;2023-09-08T11:23:36;101069.75;;;26.52;43.42
82743;BME280;72483;50.656;7.216;2023-09-08T11:26:03;101066.78;;;26.49;43.98
82743;BME280;72483;50.656;7.216;2023-09-08T11:28:30;101068.94;;;26.52;43.68
82743;BME280;72483;50.656;7.216;2023-09-08T11:30:57;101072.59;;;26.52;44.09
82743;BME280;72483;50.656;7.216;2023-09-08T11:33:23;101061.59;;;26.51;43.92
82743;BME280;72483;50.656;7.216;2023-09-08T11:35:51;101066.94;;;26.52;44.20
82743;BME280;72483;50.656;7.216;2023-09-08T11:38:24;101072.22;;;26.54;43.79
82743;BME280;72483;50.656;7.216;2023-09-08T11:40:51;101070.25;;;26.55;43.92
82743;BME280;72483;50.656;7.216;2023-09-08T11:43:18;101070.06;;;26.60;44.26
82743;BME280;72483;50.656;7.216;2023-09-08T11:45:45;101064.06;;;26.61;43.76
82743;BME280;72483;50.656;7.216;2023-09-08T11:48:13;101071.72;;;26.61;43.58
82743;BME280;72483;50.656;7.216;2023-09-08T11:50:40;101072.56;;;26.61;43.83
82743;BME280;72483;50.656;7.216;2023-09-08T11:53:07;101066.56;;;26.63;43.78
82743;BME280;72483;50.656;7.216;2023-09-08T11:55:35;101061.41;;;26.65;44.05
82743;BME280;72483;50.656;7.216;2023-09-08T11:58:03;101076.00;;;26.67;44.02
82743;BME280;72483;50.656;7.216;2023-09-08T12:00:30;101051.94;;;26.61;44.05
82743;BME280;72483;50.656;7.216;2023-09-08T12:03:10;101066.38;;;26.68;44.04
82743;BME280;72483;50.656;7.216;2023-09-08T12:05:37;101056.59;;;26.65;43.79
82743;BME280;72483;50.656;7.216;2023-09-08T12:08:05;101068.88;;;26.69;43.78
82743;BME280;72483;50.656;7.216;2023-09-08T12:10:39;101062.88;;;26.71;44.21
82743;BME280;72483;50.656;7.216;2023-09-08T12:13:06;101050.56;;;26.75;44.40
82743;BME280;72483;50.656;7.216;2023-09-08T12:15:33;101046.56;;;26.76;44.11
82743;BME280;72483;50.656;7.216;2023-09-08T12:18:01;101052.06;;;26.73;43.48
82743;BME280;72483;50.656;7.216;2023-09-08T12:20:28;101053.72;;;26.74;43.80
82743;BME280;72483;50.656;7.216;2023-09-08T12:22:57;101040.09;;;26.76;44.39
82743;BME280;72483;50.656;7.216;2023-09-08T12:25:24;101039.59;;;26.74;43.58
82743;BME280;72483;50.656;7.216;2023-09-08T12:27:52;101048.56;;;26.76;43.94
82743;BME280;72483;50.656;7.216;2023-09-08T12:30:19;101045.41;;;26.77;43.85
82743;BME280;72483;50.656;7.216;2023-09-08T12:32:47;101045.88;;;26.79;44.35
82743;BME280;72483;50.656;7.216;2023-09-08T12:35:20;101041.59;;;26.82;44.17
82743;BME280;72483;50.656;7.216;2023-09-08T12:37:51;101042.06;;;26.84;43.97
82743;BME280;72483;50.656;7.216;2023-09-08T12:40:18;101041.59;;;26.82;44.33
82743;BME280;72483;50.656;7.216;2023-09-08T12:42:44;101035.75;;;26.87;44.37
82743;BME280;72483;50.656;7.216;2023-09-08T12:45:12;101037.88;;;26.90;44.61
82743;BME280;72483;50.656;7.216;2023-09-08T12:47:39;101033.91;;;26.91;44.19
82743;BME280;72483;50.656;7.216;2023-09-08T12:50:06;101034.38;;;26.93;44.29
82743;BME280;72483;50.656;7.216;2023-09-08T12:52:33;101031.91;;;26.91;44.65